Orrville, Alabama
Current Conditions -  °F | °C
As of 7:55 AM on Thursday 29 Jan 2015 (Local Time) from KDYA Reporting Station
Clear Clear  
Wind Chill: 41°   Ceiling: Unl
Heat Index: 44°   Visibility: 10mi
Dew Point: 44°   Wind: 5mph
Humidity: 100%   Direction: 130°SE
Pressure: 30.25"   Gusts: NA
Location:  32.31°N, 87.25°W
Report Text: KDYA 291355Z AUTO 13004KT 10SM CLR 06/06 A3025 RMK AO2 T00640064
Loading
Personal Weather Stations






























Interactive Weather Map New forecast layout! Learn more

10-Day Weather Forecast

Advertisements
Track Severe Weather on mobile